Time;durP1;ratioP1;P1;durP2;ratioP2;P2;SDS_P1;SDS_P2;PMS_P1;PMS_P2;Temp;Humidity;BMP_temperature;BMP_pressure;BME280_temperature;BME280_humidity;BME280_pressure;Samples;Min_cycle;Max_cycle;Signal;HPM_P1;HPM_P2
2022/06/02 00:01:52;;;;;;;5.90;2.00;;;;;;;14.05;70.03;100593.94;20906359;28;20045;-65
2022/06/02 00:12:06;;;;;;;3.50;1.58;;;;;;;13.86;70.99;100590.94;20905974;28;20064;-67
2022/06/02 00:22:20;;;;;;;3.85;1.80;;;;;;;13.80;70.59;100599.84;20904104;28;20329;-65
2022/06/02 00:32:39;;;;;;;6.45;1.83;;;;;;;13.65;71.77;100609.88;20904290;28;20049;-66
2022/06/02 00:42:49;;;;;;;4.60;2.00;;;;;;;13.72;71.43;100614.97;20903554;28;20057;-66
2022/06/02 00:53:28;;;;;;;4.28;2.35;;;;;;;13.40;73.91;100631.53;20903169;28;20564;-68
2022/06/02 01:03:48;;;;;;;7.50;2.15;;;;;;;13.37;74.64;100629.00;20900557;28;20073;-67
2022/06/02 01:14:06;;;;;;;4.30;1.95;;;;;;;13.17;75.81;100636.41;20901347;28;20045;-66
2022/06/02 01:24:26;;;;;;;5.82;2.40;;;;;;;12.99;77.03;100625.44;20901061;28;20060;-66
2022/06/02 01:34:46;;;;;;;6.43;2.47;;;;;;;12.82;77.39;100631.03;20900269;28;20153;-65
2022/06/02 01:44:58;;;;;;;4.65;2.35;;;;;;;12.74;78.62;100647.84;20900043;28;20110;-66
2022/06/02 01:55:15;;;;;;;5.53;2.60;;;;;;;12.56;79.74;100652.59;20899731;28;20053;-67
2022/06/02 02:05:44;;;;;;;5.43;2.60;;;;;;;12.44;79.39;100658.09;20897342;28;20045;-66
2022/06/02 02:16:19;;;;;;;6.68;3.10;;;;;;;12.41;79.02;100663.41;20898875;28;20060;-68
2022/06/02 02:26:44;;;;;;;6.20;2.90;;;;;;;12.46;79.34;100672.06;20898492;28;20053;-66
2022/06/02 02:37:09;;;;;;;6.55;2.80;;;;;;;12.34;81.58;100682.78;20897379;28;20045;-67
2022/06/02 02:47:22;;;;;;;7.88;3.30;;;;;;;12.20;80.86;100685.66;20912388;28;20723;-66
2022/06/02 02:57:50;;;;;;;6.22;3.13;;;;;;;12.00;82.94;100688.63;20911496;28;20476;-65
2022/06/02 03:08:03;;;;;;;5.93;3.22;;;;;;;11.81;84.02;100688.03;20910672;28;20490;-66
2022/06/02 03:18:32;;;;;;;6.10;3.20;;;;;;;11.77;84.12;100688.09;20911095;28;20431;-68
2022/06/02 03:28:39;;;;;;;7.93;3.63;;;;;;;11.59;85.97;100685.78;20910950;28;20052;-68
2022/06/02 03:39:01;;;;;;;8.60;3.72;;;;;;;11.32;86.24;100682.69;20909092;28;20044;-66
2022/06/02 03:49:21;;;;;;;6.88;4.20;;;;;;;11.34;86.01;100696.63;20908375;28;20049;-66
2022/06/02 03:59:43;;;;;;;6.72;4.10;;;;;;;11.47;85.30;100705.19;20906419;28;20138;-66
2022/06/02 04:09:52;;;;;;;7.93;3.92;;;;;;;11.27;86.50;100713.34;20906471;28;20564;-66
2022/06/02 04:30:30;;;;;;;8.10;4.72;;;;;;;12.24;81.51;100702.22;20904374;28;20486;-66
2022/06/02 04:40:38;;;;;;;8.55;5.20;;;;;;;13.13;74.81;100711.00;20904371;28;20079;-65
2022/06/02 04:50:49;;;;;;;8.63;5.05;;;;;;;12.31;79.55;100730.09;20904451;28;20102;-65
2022/06/02 05:01:03;;;;;;;8.05;5.40;;;;;;;12.25;81.74;100724.97;20901280;28;20068;-65
2022/06/02 05:11:30;;;;;;;8.97;5.10;;;;;;;12.50;80.23;100736.78;20902034;28;20048;-65
2022/06/02 05:22:02;;;;;;;9.32;5.95;;;;;;;12.56;80.87;100741.91;20901225;28;20057;-65
2022/06/02 05:32:37;;;;;;;9.18;5.50;;;;;;;12.87;79.70;100741.31;20900109;28;20136;-68
2022/06/02 05:43:06;;;;;;;9.93;5.30;;;;;;;12.91;80.22;100752.63;20880137;28;20110;-63
2022/06/02 05:53:30;;;;;;;14.40;6.30;;;;;;;13.27;78.74;100751.03;20900191;28;20045;-63
2022/06/02 06:03:43;;;;;;;8.52;4.95;;;;;;;13.53;78.64;100746.09;20899162;28;20421;-63
2022/06/02 06:14:06;;;;;;;8.75;5.07;;;;;;;14.00;76.49;100757.28;20901591;28;20045;-63
2022/06/02 06:24:40;;;;;;;9.30;5.30;;;;;;;14.17;74.41;100762.13;20915057;28;20110;-64
2022/06/02 06:34:56;;;;;;;8.88;4.55;;;;;;;14.84;71.61;100759.53;20913518;28;20045;-63
2022/06/02 06:45:22;;;;;;;6.43;4.30;;;;;;;15.01;69.24;100749.41;20913401;28;20445;-64
2022/06/02 06:55:46;;;;;;;8.70;3.35;;;;;;;15.33;64.74;100748.47;20913251;28;20071;-63
2022/06/02 07:06:13;;;;;;;8.32;3.28;;;;;;;15.53;62.88;100755.78;20928934;28;20058;-63
2022/06/02 07:16:35;;;;;;;6.22;3.58;;;;;;;15.83;63.57;100753.13;20935737;28;20049;-64
2022/06/02 07:27:14;;;;;;;10.75;2.78;;;;;;;16.10;61.94;100757.53;20917075;28;20140;-64
2022/06/02 07:37:41;;;;;;;3.72;1.90;;;;;;;16.39;54.47;100759.19;20914698;28;20402;-63
2022/06/02 07:48:18;;;;;;;4.22;2.00;;;;;;;16.58;54.49;100750.63;20983955;28;20052;-64
2022/06/02 07:58:43;;;;;;;4.13;1.75;;;;;;;17.15;52.46;100742.41;20982425;28;20068;-63
2022/06/02 08:09:17;;;;;;;3.25;1.75;;;;;;;17.56;50.03;100749.69;20981699;28;20459;-64
2022/06/02 08:19:27;;;;;;;4.55;1.70;;;;;;;17.38;48.70;100746.81;20902160;28;20049;-64
2022/06/02 08:29:49;;;;;;;5.20;2.13;;;;;;;17.92;45.88;100742.09;20898011;28;20049;-64
2022/06/02 08:40:28;;;;;;;6.72;1.63;;;;;;;18.20;46.81;100740.03;20865029;28;20398;-64
2022/06/02 08:50:50;;;;;;;3.00;1.55;;;;;;;18.01;48.26;100752.31;20896842;28;20057;-64
2022/06/02 09:01:49;;;;;;;8.73;2.10;;;;;;;18.79;42.58;100748.19;20895286;28;20448;-65
2022/06/02 09:12:16;;;;;;;4.13;1.50;;;;;;;18.56;45.49;100744.69;20810513;28;20074;-64
2022/06/02 09:22:49;;;;;;;2.75;1.30;;;;;;;19.31;43.02;100740.50;20976894;28;20051;-64
2022/06/02 09:33:33;;;;;;;5.38;1.73;;;;;;;19.64;42.88;100736.28;20975868;28;20159;-65
2022/06/02 09:44:00;;;;;;;4.78;1.40;;;;;;;20.02;39.20;100744.16;20976008;28;20497;-67
2022/06/02 09:54:24;;;;;;;4.00;1.45;;;;;;;20.07;40.22;100731.50;20988981;28;20410;-73
2022/06/02 10:04:46;;;;;;;4.57;1.55;;;;;;;20.62;38.84;100719.91;20990333;28;20102;-67
2022/06/02 10:14:56;;;;;;;5.95;2.90;;;;;;;21.22;37.90;100705.13;20949693;28;20041;-69
2022/06/02 10:25:04;;;;;;;3.60;1.20;;;;;;;20.57;37.76;100712.16;20907547;28;20059;-66
2022/06/02 10:35:43;;;;;;;2.58;1.00;;;;;;;21.14;37.39;100701.16;20906017;28;20052;-68
2022/06/02 10:45:50;;;;;;;3.08;1.10;;;;;;;20.59;38.03;100702.28;20905974;28;20053;-68
2022/06/02 10:56:05;;;;;;;3.13;1.20;;;;;;;21.68;38.36;100685.69;20904151;28;20064;-64
2022/06/02 11:07:05;;;;;;;3.65;1.20;;;;;;;21.19;36.65;100689.28;20902120;28;20521;-64
2022/06/02 11:17:39;;;;;;;3.28;1.15;;;;;;;21.53;36.06;100682.13;20955076;28;20056;-64
2022/06/02 11:28:04;;;;;;;3.85;1.00;;;;;;;21.75;36.44;100671.06;20985136;28;20504;-64
2022/06/02 11:38:17;;;;;;;2.88;0.80;;;;;;;22.16;35.21;100650.00;20983753;28;20045;-64
2022/06/02 11:48:39;;;;;;;3.90;1.05;;;;;;;22.87;35.09;100635.00;20984223;28;20049;-64
2022/06/02 11:58:58;;;;;;;1.60;0.88;;;;;;;22.78;33.22;100620.41;20982778;28;20166;-64
2022/06/02 12:09:35;;;;;;;2.80;0.93;;;;;;;22.18;34.85;100616.13;20980224;28;20110;-64
2022/06/02 12:20:01;;;;;;;4.43;1.00;;;;;;;22.04;34.77;100610.72;20900214;28;20053;-63
2022/06/02 12:30:24;;;;;;;3.33;0.93;;;;;;;22.66;34.22;100600.69;20897673;28;20460;-64
2022/06/02 12:40:44;;;;;;;2.75;1.00;;;;;;;22.54;35.08;100594.31;20897396;28;20152;-65
2022/06/02 12:51:00;;;;;;;3.13;1.20;;;;;;;22.72;35.76;100597.63;20896406;28;20098;-65
2022/06/02 13:01:39;;;;;;;3.55;1.20;;;;;;;22.17;36.80;100594.84;20893964;28;20053;-64
2022/06/02 13:12:02;;;;;;;4.75;1.10;;;;;;;22.57;36.42;100598.59;20910571;28;20045;-65
2022/06/02 13:22:31;;;;;;;5.40;1.70;;;;;;;22.13;36.83;100587.97;20975238;28;20051;-64
2022/06/02 13:32:48;;;;;;;4.18;1.30;;;;;;;22.50;36.64;100584.78;20975511;28;20044;-64
2022/06/02 13:43:14;;;;;;;7.00;1.40;;;;;;;22.71;36.88;100589.75;20975424;28;20097;-65
2022/06/02 14:04:49;;;;;;;2.97;1.17;;;;;;;22.25;37.61;100560.56;20963624;28;20067;-65
2022/06/02 14:15:22;;;;;;;2.75;0.98;;;;;;;23.20;37.27;100563.44;20933262;28;20064;-65
2022/06/02 14:25:44;;;;;;;2.17;1.08;;;;;;;23.07;36.97;100534.94;20891551;28;20049;-65
2022/06/02 14:36:18;;;;;;;2.53;1.23;;;;;;;22.95;37.09;100536.63;20895233;28;20045;-65
2022/06/02 14:46:38;;;;;;;3.83;1.33;;;;;;;23.18;37.69;100517.22;20907887;28;20495;-64
2022/06/02 14:57:06;;;;;;;3.38;1.42;;;;;;;23.56;36.96;100511.13;20904848;28;20049;-65
2022/06/02 15:07:25;;;;;;;5.82;1.90;;;;;;;23.54;36.14;100503.22;20903829;28;20049;-65
2022/06/02 15:17:41;;;;;;;5.28;1.60;;;;;;;23.47;36.90;100506.41;20967148;28;20048;-65
2022/06/02 15:28:05;;;;;;;4.57;1.65;;;;;;;23.67;38.07;100502.44;20985544;28;20475;-65
2022/06/02 15:38:28;;;;;;;4.07;1.20;;;;;;;24.48;34.32;100477.97;20983865;28;20517;-64
2022/06/02 15:48:29;;;;;;;1.25;0.90;;;;;;;24.15;35.97;100471.41;20983660;28;20499;-65
2022/06/02 15:58:46;;;;;;;2.75;1.20;;;;;;;23.84;35.46;100458.47;20982464;28;20443;-64
2022/06/02 16:20:03;;;;;;;3.78;1.42;;;;;;;23.88;35.30;100454.63;20899063;28;20052;-64
2022/06/02 16:30:23;;;;;;;3.35;1.00;;;;;;;23.99;36.22;100454.72;20897397;28;20109;-65
2022/06/02 16:40:47;;;;;;;2.72;1.20;;;;;;;23.88;34.99;100451.94;20896723;28;20049;-64
2022/06/02 16:51:22;;;;;;;3.70;1.20;;;;;;;23.74;35.57;100451.09;20896635;28;20045;-65
2022/06/02 17:01:30;;;;;;;2.47;1.10;;;;;;;23.62;36.18;100448.38;20893002;28;20058;-65
2022/06/02 17:12:12;;;;;;;4.75;1.30;;;;;;;23.62;37.25;100457.28;20910514;28;20481;-65
2022/06/02 17:22:49;;;;;;;3.80;1.38;;;;;;;23.68;38.94;100446.19;20976714;28;20138;-65
2022/06/02 17:33:39;;;;;;;5.72;1.20;;;;;;;23.38;39.05;100449.13;20942135;28;20098;-67
2022/06/02 17:43:52;;;;;;;3.35;1.60;;;;;;;23.14;39.33;100438.28;20846197;28;20084;-67
2022/06/02 17:54:09;;;;;;;3.23;1.30;;;;;;;22.90;40.34;100448.81;20892809;28;20044;-70
2022/06/02 18:04:43;;;;;;;5.93;1.48;;;;;;;22.97;42.22;100443.91;20890540;28;20049;-70
2022/06/02 18:15:27;;;;;;;3.28;1.23;;;;;;;22.85;42.18;100444.66;20946220;28;20379;-67
2022/06/02 18:25:49;;;;;;;7.88;1.83;;;;;;;22.72;43.16;100440.16;20976023;28;20060;-64
2022/06/02 18:36:41;;;;;;;1.90;1.05;;;;;;;22.05;45.72;100441.78;20988870;28;20082;-64
2022/06/02 18:47:12;;;;;;;5.90;1.40;;;;;;;21.76;46.57;100432.94;20786160;28;20060;-66
2022/06/02 18:57:18;;;;;;;8.07;1.75;;;;;;;21.53;47.34;100442.31;20986551;28;20053;-64
2022/06/02 19:18:39;;;;;;;4.40;1.50;;;;;;;21.07;48.59;100454.81;20915245;28;20052;-65
2022/06/02 19:29:01;;;;;;;3.13;1.60;;;;;;;20.83;50.09;100462.41;20901019;28;20049;-65
2022/06/02 19:39:18;;;;;;;5.38;1.90;;;;;;;20.59;51.36;100472.63;20900911;28;20072;-64
2022/06/02 19:49:38;;;;;;;3.40;1.35;;;;;;;20.33;52.48;100476.72;20900712;28;20444;-64
2022/06/02 19:59:41;;;;;;;3.63;1.50;;;;;;;20.14;53.16;100480.38;20898395;28;20060;-64
2022/06/02 20:10:03;;;;;;;4.43;1.60;;;;;;;19.86;55.46;100481.00;20898643;28;20053;-65
2022/06/02 20:20:19;;;;;;;3.38;1.40;;;;;;;19.66;56.18;100490.00;20815313;28;20053;-64
2022/06/02 20:30:27;;;;;;;4.43;1.35;;;;;;;19.37;58.07;100490.63;20814580;28;20499;-64
2022/06/02 20:40:53;;;;;;;4.35;1.40;;;;;;;19.14;60.61;100489.97;20813346;28;20049;-64
2022/06/02 20:51:00;;;;;;;7.38;1.80;;;;;;;18.73;64.74;100501.72;20813579;28;20057;-64
2022/06/02 21:01:16;;;;;;;4.68;1.88;;;;;;;18.27;68.06;100503.88;20810884;28;20049;-64
2022/06/02 21:11:26;;;;;;;5.25;1.98;;;;;;;18.29;65.18;100496.69;20837673;28;20098;-64
2022/06/02 21:21:33;;;;;;;3.28;1.67;;;;;;;18.37;62.20;100486.59;20976780;28;20056;-64
2022/06/02 21:31:37;;;;;;;2.75;1.52;;;;;;;18.30;60.89;100493.09;20975313;28;20775;-64
2022/06/02 21:41:45;;;;;;;6.37;2.07;;;;;;;18.19;61.07;100491.81;20975530;28;20049;-65
2022/06/02 21:51:58;;;;;;;4.72;1.80;;;;;;;18.05;61.07;100496.88;20975392;28;20082;-64
2022/06/02 22:02:15;;;;;;;3.90;1.60;;;;;;;17.87;62.42;100492.41;20972415;28;20484;-64
2022/06/02 22:12:47;;;;;;;4.05;1.60;;;;;;;17.69;63.45;100480.81;20899424;28;20087;-64
2022/06/02 22:22:50;;;;;;;5.03;1.73;;;;;;;17.42;66.59;100485.50;20898728;28;20052;-64
2022/06/02 22:33:43;;;;;;;3.78;1.50;;;;;;;16.95;68.74;100490.13;20897748;28;20502;-64
2022/06/02 22:43:54;;;;;;;4.53;1.80;;;;;;;16.78;69.68;100480.25;20740783;28;20052;-64
2022/06/02 22:54:18;;;;;;;3.97;1.70;;;;;;;16.65;69.87;100478.03;20897503;28;20099;-64
2022/06/02 23:04:46;;;;;;;3.10;1.58;;;;;;;16.49;71.43;100479.56;20909318;28;20049;-64
2022/06/02 23:15:16;;;;;;;4.47;1.80;;;;;;;16.10;73.08;100488.09;20910507;28;20040;-64
2022/06/02 23:25:41;;;;;;;5.30;2.00;;;;;;;16.02;71.81;100463.75;20909748;28;20049;-64
2022/06/02 23:36:02;;;;;;;3.83;2.00;;;;;;;15.93;71.37;100464.06;20908834;28;20049;-64
2022/06/02 23:46:26;;;;;;;4.50;2.00;;;;;;;15.83;71.37;100457.41;20908886;28;20061;-65
2022/06/02 23:56:43;;;;;;;7.22;2.50;;;;;;;15.82;69.30;100453.06;20907204;28;20049;-63
